Time;durP1;ratioP1;P1;durP2;ratioP2;P2;SDS_P1;SDS_P2;PMS_P1;PMS_P2;Temp;Humidity;BMP_temperature;BMP_pressure;BME280_temperature;BME280_humidity;BME280_pressure;Samples;Min_cycle;Max_cycle;Signal;HPM_P1;HPM_P2
2022/05/30 00:01:24;;;;;;;15.35;9.98;;;;;;;22.76;71.02;100533.47;5070293;28;20397;-81
2022/05/30 00:03:50;;;;;;;14.40;9.63;;;;;;;22.74;70.96;100521.94;5061380;28;20021;-82
2022/05/30 00:06:16;;;;;;;;;;;;;;;22.77;70.96;100513.06;5070500;28;20078;-81
2022/05/30 00:08:42;;;;;;;14.45;9.70;;;;;;;22.66;70.92;100496.22;5063291;28;20301;-82
2022/05/30 00:11:09;;;;;;;;;;;;;;;22.78;71.07;100512.19;5068847;28;20501;-81
2022/05/30 00:13:35;;;;;;;13.15;9.93;;;;;;;22.74;71.26;100513.06;5069289;28;19917;-82
2022/05/30 00:16:07;;;;;;;;;;;;;;;22.77;70.73;100510.41;5070987;28;20525;-81
2022/05/30 00:18:33;;;;;;;11.50;9.27;;;;;;;22.70;71.22;100509.50;5061662;28;19912;-82
2022/05/30 00:20:59;;;;;;;13.13;9.75;;;;;;;22.74;71.21;100510.41;5063096;28;20090;-82
2022/05/30 00:23:25;;;;;;;13.48;9.75;;;;;;;22.74;71.14;100502.44;5062434;28;20465;-81
2022/05/30 00:25:51;;;;;;;14.13;9.02;;;;;;;22.74;70.98;100497.97;5068409;28;20060;-82
2022/05/30 00:28:16;;;;;;;16.38;9.35;;;;;;;22.76;70.86;100493.53;5058669;28;20059;-81
2022/05/30 00:30:44;;;;;;;12.52;9.40;;;;;;;22.75;70.80;100498.84;5062884;28;20032;-82
2022/05/30 00:33:10;;;;;;;13.75;9.10;;;;;;;22.75;70.94;100498.84;5069833;28;20039;-81
2022/05/30 00:35:37;;;;;;;13.73;9.45;;;;;;;22.74;71.15;100505.97;5067314;28;20040;-81
2022/05/30 00:38:03;;;;;;;16.05;10.02;;;;;;;22.74;71.12;100497.09;5070505;28;20533;-81
2022/05/30 00:40:29;;;;;;;12.85;9.13;;;;;;;22.69;71.08;100494.44;5068205;28;20119;-81
2022/05/30 00:42:54;;;;;;;13.77;9.45;;;;;;;22.73;70.94;100500.63;5071349;28;20040;-82
2022/05/30 00:45:20;;;;;;;;;;;;;;;22.75;70.86;100494.44;5069587;28;20051;-82
2022/05/30 00:47:46;;;;;;;15.30;9.63;;;;;;;22.71;71.30;100482.03;5070081;28;20309;-82
2022/05/30 00:50:12;;;;;;;14.73;9.48;;;;;;;22.72;71.12;100467.81;5062522;28;20078;-82
2022/05/30 00:52:43;;;;;;;20.08;10.02;;;;;;;22.70;71.07;100474.91;5053576;28;20059;-82
2022/05/30 00:55:16;;;;;;;14.20;9.25;;;;;;;22.72;70.97;100483.78;5066480;28;20108;-81
2022/05/30 00:57:44;;;;;;;15.70;9.50;;;;;;;22.71;71.05;100495.34;5070160;28;20029;-82
2022/05/30 01:00:16;;;;;;;15.60;9.93;;;;;;;22.60;71.19;100480.25;5069996;28;20051;-82
2022/05/30 01:02:42;;;;;;;15.32;9.57;;;;;;;22.71;71.05;100502.41;5067696;28;20482;-82
2022/05/30 01:08:13;;;;;;;12.10;9.27;;;;;;;22.66;71.50;100491.78;5084594;28;20033;-82
2022/05/30 01:10:38;;;;;;;13.18;9.25;;;;;;;22.63;71.51;100491.78;5060027;28;20074;-81
2022/05/30 01:13:11;;;;;;;13.68;9.60;;;;;;;22.61;71.43;100479.38;5066304;28;20421;-82
2022/05/30 01:15:37;;;;;;;12.32;9.40;;;;;;;22.69;71.39;100491.78;5051815;28;20025;-82
2022/05/30 01:18:03;;;;;;;13.52;8.98;;;;;;;22.68;71.77;100486.47;5068123;28;20502;-81
2022/05/30 01:20:36;;;;;;;14.98;9.45;;;;;;;22.61;71.58;100471.38;5060255;28;20126;-82
2022/05/30 01:23:08;;;;;;;15.88;9.52;;;;;;;22.67;71.40;100477.59;5069609;28;20028;-81
2022/05/30 01:25:58;;;;;;;15.25;8.88;;;;;;;22.69;71.41;100477.56;5062064;28;20032;-82
2022/05/30 01:28:44;;;;;;;17.73;9.90;;;;;;;22.66;71.68;100473.13;5069108;28;20039;-82
2022/05/30 01:31:10;;;;;;;15.13;9.53;;;;;;;22.68;71.33;100471.38;5069877;28;20028;-82
2022/05/30 01:33:36;;;;;;;17.23;8.80;;;;;;;22.68;71.15;100489.13;5069410;28;20020;-81
2022/05/30 01:36:02;;;;;;;14.75;9.70;;;;;;;22.65;71.31;100490.00;5058769;28;20036;-81
2022/05/30 01:38:28;;;;;;;;;;;;;;;22.72;71.26;100497.09;5051026;28;20466;-81
2022/05/30 01:40:55;;;;;;;13.25;8.68;;;;;;;22.65;71.61;100495.34;5058663;28;19915;-81
2022/05/30 01:43:21;;;;;;;13.98;9.45;;;;;;;22.49;71.93;100475.78;5070532;28;20055;-81
2022/05/30 01:45:47;;;;;;;12.40;9.05;;;;;;;22.65;71.63;100503.31;5069800;28;20029;-80
2022/05/30 01:48:13;;;;;;;15.32;8.38;;;;;;;22.67;71.76;100519.25;5064064;28;20039;-81
2022/05/30 01:50:39;;;;;;;11.35;8.35;;;;;;;22.67;71.53;100529.91;5068737;28;20062;-81
2022/05/30 01:53:04;;;;;;;14.15;8.70;;;;;;;22.65;71.22;100521.94;5067439;28;20025;-81
2022/05/30 01:55:30;;;;;;;15.07;9.02;;;;;;;22.69;71.46;100536.13;5070509;28;20052;-81
2022/05/30 01:57:56;;;;;;;;;;;;;;;22.76;71.01;100537.94;5067047;28;20405;-81
2022/05/30 02:00:22;;;;;;;16.20;9.93;;;;;;;22.56;71.14;100519.25;5066161;28;20369;-81
2022/05/30 02:02:49;;;;;;;14.82;9.13;;;;;;;22.67;70.94;100537.91;5065443;28;20021;-81
2022/05/30 02:05:15;;;;;;;15.20;9.80;;;;;;;22.67;70.96;100549.47;5063335;28;20501;-81
2022/05/30 02:07:40;;;;;;;16.63;9.65;;;;;;;22.68;70.89;100547.69;5070148;28;20021;-80
2022/05/30 02:10:06;;;;;;;14.90;9.07;;;;;;;22.71;70.92;100550.31;5065016;28;20422;-81
2022/05/30 02:12:32;;;;;;;11.88;8.98;;;;;;;22.67;70.76;100544.13;5068257;28;20035;-81
2022/05/30 02:14:57;;;;;;;;;;;;;;;22.71;70.67;100547.66;5070692;28;20067;-81
2022/05/30 02:17:24;;;;;;;14.63;9.48;;;;;;;22.68;70.70;100545.00;5070358;28;19909;-81
2022/05/30 02:19:52;;;;;;;14.07;9.45;;;;;;;22.54;70.71;100523.69;5052874;28;20114;-81
2022/05/30 02:22:20;;;;;;;12.90;9.30;;;;;;;22.68;70.57;100545.00;5063763;28;20107;-80
2022/05/30 02:24:48;;;;;;;14.48;9.48;;;;;;;22.67;70.51;100537.91;5073091;28;20020;-81
2022/05/30 02:27:15;;;;;;;16.88;10.25;;;;;;;22.67;70.46;100533.50;5101007;28;20032;-81
2022/05/30 02:29:41;;;;;;;13.45;9.07;;;;;;;22.67;70.44;100535.22;5081710;28;20478;-81
2022/05/30 02:32:07;;;;;;;15.65;9.60;;;;;;;22.62;70.50;100526.38;5059422;28;20081;-81
2022/05/30 02:37:16;;;;;;;13.82;9.98;;;;;;;22.61;70.34;100520.16;5073991;28;20102;-81
2022/05/30 02:39:42;;;;;;;15.23;9.52;;;;;;;22.63;70.13;100529.03;5073334;28;20036;-81
2022/05/30 02:42:08;;;;;;;14.13;9.70;;;;;;;22.60;70.29;100523.69;5068830;28;20114;-81
2022/05/30 02:44:34;;;;;;;12.55;9.23;;;;;;;22.58;70.29;100530.78;5073369;28;20074;-81
2022/05/30 02:47:00;;;;;;;13.55;9.43;;;;;;;22.64;70.25;100540.56;5070690;28;20557;-81
2022/05/30 02:49:26;;;;;;;;;;;;;;;22.65;70.09;100543.25;5069493;28;20090;-81
2022/05/30 02:51:52;;;;;;;14.57;9.05;;;;;;;22.59;70.31;100543.22;5066267;28;20015;-81
2022/05/30 02:54:17;;;;;;;;;;;;;;;22.64;70.10;100548.56;5072692;28;20040;-82
2022/05/30 02:56:51;;;;;;;19.48;9.68;;;;;;;22.60;70.41;100546.78;5070638;28;19913;-82
2022/05/30 02:59:17;;;;;;;12.00;9.07;;;;;;;22.58;70.23;100543.22;5071890;28;20024;-82
2022/05/30 03:01:43;;;;;;;15.85;9.85;;;;;;;22.57;70.48;100550.31;5068378;28;20042;-82
2022/05/30 03:04:09;;;;;;;;;;;;;;;22.63;70.04;100550.34;5068511;28;20032;-82
2022/05/30 03:06:35;;;;;;;13.65;9.43;;;;;;;22.60;70.14;100554.75;5067558;28;19934;-82
2022/05/30 03:09:01;;;;;;;13.70;9.20;;;;;;;22.53;70.12;100541.44;5065966;28;20036;-81
2022/05/30 03:11:26;;;;;;;;;;;;;;;22.62;70.03;100553.00;5073566;28;20095;-81
2022/05/30 03:13:53;;;;;;;15.25;9.38;;;;;;;22.54;70.05;100551.22;5069538;28;20015;-82
2022/05/30 03:16:18;;;;;;;16.75;9.85;;;;;;;22.55;70.02;100550.31;5072173;28;20037;-81
2022/05/30 03:18:44;;;;;;;13.15;8.98;;;;;;;22.54;70.02;100545.91;5071596;28;20134;-82
2022/05/30 03:21:10;;;;;;;18.50;9.77;;;;;;;22.54;70.09;100550.31;5068252;28;20036;-81
2022/05/30 03:23:36;;;;;;;;;;;;;;;22.59;69.96;100561.88;5060662;28;20029;-82
2022/05/30 03:26:02;;;;;;;14.93;8.93;;;;;;;22.56;69.84;100561.84;5085951;28;20397;-81
2022/05/30 03:28:28;;;;;;;11.20;9.00;;;;;;;22.41;69.94;100536.09;5071306;28;20395;-82
2022/05/30 03:30:54;;;;;;;13.63;9.43;;;;;;;22.54;70.00;100558.28;5070469;28;20039;-81
2022/05/30 03:33:19;;;;;;;14.45;8.93;;;;;;;22.55;69.97;100549.44;5070790;28;20430;-81
2022/05/30 03:35:45;;;;;;;;;;;;;;;22.57;69.83;100553.00;5071228;28;20562;-82
2022/05/30 03:38:11;;;;;;;17.55;9.85;;;;;;;22.46;70.00;100528.16;5072274;28;19918;-82
2022/05/30 03:40:39;;;;;;;;;;;;;;;22.56;69.99;100544.13;5070662;28;20029;-82
2022/05/30 03:43:09;;;;;;;15.38;9.18;;;;;;;22.50;69.94;100546.78;5067626;28;19916;-82
2022/05/30 03:45:39;;;;;;;17.67;9.60;;;;;;;22.49;70.13;100554.75;5066597;28;20013;-82
2022/05/30 03:48:05;;;;;;;18.10;9.85;;;;;;;22.48;70.14;100547.63;5070581;28;20024;-82
2022/05/30 03:50:32;;;;;;;14.00;10.02;;;;;;;22.30;70.01;100516.56;5069001;28;20389;-82
2022/05/30 03:53:04;;;;;;;14.95;9.85;;;;;;;22.47;70.16;100544.09;5068303;28;20032;-82
2022/05/30 03:55:34;;;;;;;12.75;9.70;;;;;;;22.39;70.11;100527.22;5080350;28;20020;-82
2022/05/30 03:58:01;;;;;;;15.93;9.70;;;;;;;22.41;69.94;100533.44;5071108;28;20032;-81
2022/05/30 04:00:27;;;;;;;16.63;10.20;;;;;;;22.45;70.17;100537.88;5072244;28;20021;-81
2022/05/30 04:02:52;;;;;;;11.55;9.18;;;;;;;22.38;70.16;100517.47;5072090;28;20166;-82
2022/05/30 04:05:19;;;;;;;11.25;9.43;;;;;;;22.47;70.14;100543.22;5069523;28;20032;-82
2022/05/30 04:07:45;;;;;;;14.50;9.80;;;;;;;22.46;70.23;100531.69;5070783;28;20024;-81
2022/05/30 04:10:11;;;;;;;14.07;9.85;;;;;;;22.46;70.17;100536.13;5067969;28;20366;-81
2022/05/30 04:12:38;;;;;;;15.15;9.75;;;;;;;22.35;70.00;100518.38;5080999;28;20033;-81
2022/05/30 04:15:05;;;;;;;12.55;9.55;;;;;;;22.46;70.14;100536.13;5071171;28;20028;-82
2022/05/30 04:17:32;;;;;;;15.02;9.40;;;;;;;;;;5079597;28;20478;-81
2022/05/30 04:19:58;;;;;;;15.32;9.30;;;;;;;22.42;70.10;100542.34;5069494;28;20029;-81
2022/05/30 04:22:23;;;;;;;13.48;9.77;;;;;;;22.46;70.17;100554.75;5068096;28;20040;-82
2022/05/30 04:24:49;;;;;;;;;;;;;;;22.48;69.84;100556.53;5067568;28;20610;-82
2022/05/30 04:27:14;;;;;;;15.63;9.43;;;;;;;22.44;70.27;100568.03;5070172;28;19977;-82
2022/05/30 04:29:40;;;;;;;;;;;;;;;22.47;69.97;100576.03;5064961;28;20032;-82
2022/05/30 04:32:06;;;;;;;16.20;9.35;;;;;;;22.44;70.12;100572.50;5070510;28;19926;-81
2022/05/30 04:34:32;;;;;;;13.20;9.43;;;;;;;22.32;70.23;100550.28;5065945;28;20021;-82
2022/05/30 04:36:58;;;;;;;12.52;9.77;;;;;;;22.43;70.19;100566.25;5068159;28;20039;-82
2022/05/30 04:39:23;;;;;;;;;;;;;;;22.47;69.99;100565.38;5067977;28;20817;-82
2022/05/30 04:41:49;;;;;;;11.60;8.90;;;;;;;22.31;70.05;100548.50;5066202;28;20394;-82
2022/05/30 04:44:15;;;;;;;13.85;9.45;;;;;;;22.22;70.25;100537.78;5069555;28;20024;-83
2022/05/30 04:46:40;;;;;;;;;;;;;;;22.47;69.96;100580.47;5068951;28;20028;-82
2022/05/30 04:49:06;;;;;;;13.45;9.43;;;;;;;22.41;70.32;100594.63;5070723;28;19970;-83
2022/05/30 04:51:32;;;;;;;14.85;9.52;;;;;;;22.33;70.06;100586.66;5066185;28;20025;-83
2022/05/30 04:53:57;;;;;;;;;;;;;;;22.47;70.07;100596.44;5070493;28;20032;-83
2022/05/30 04:56:23;;;;;;;14.63;9.43;;;;;;;22.43;70.41;100594.66;5080320;28;20356;-83
2022/05/30 04:58:50;;;;;;;16.08;10.07;;;;;;;22.39;70.29;100591.06;5062296;28;20119;-83
2022/05/30 05:01:16;;;;;;;13.60;9.45;;;;;;;22.44;70.19;100593.78;5065504;28;20024;-84
2022/05/30 05:03:43;;;;;;;12.45;9.52;;;;;;;22.45;70.35;100603.53;5063137;28;20438;-83
2022/05/30 05:06:19;;;;;;;15.00;9.38;;;;;;;22.45;70.04;100601.75;5062087;28;20236;-82
2022/05/30 05:08:51;;;;;;;11.98;8.75;;;;;;;22.49;70.18;100607.97;5078526;28;20104;-85
2022/05/30 05:11:23;;;;;;;15.25;9.27;;;;;;;22.45;70.43;100608.84;5068562;28;20024;-80
2022/05/30 05:13:48;;;;;;;14.05;9.60;;;;;;;22.38;69.99;100589.31;5058201;28;20110;-81
2022/05/30 05:16:16;;;;;;;15.32;9.57;;;;;;;22.47;70.22;100612.41;5080008;28;20028;-81
2022/05/30 05:18:43;;;;;;;16.45;9.90;;;;;;;22.47;70.18;100615.06;5082356;28;20118;-81
2022/05/30 05:21:18;;;;;;;14.02;10.05;;;;;;;22.46;70.23;100632.81;5057780;28;20147;-81
2022/05/30 05:23:45;;;;;;;11.75;9.27;;;;;;;22.42;70.24;100640.78;5074660;28;20033;-81
2022/05/30 05:26:10;;;;;;;12.27;9.70;;;;;;;22.40;70.48;100655.84;5060522;28;20025;-82
2022/05/30 05:28:36;;;;;;;16.70;9.95;;;;;;;22.47;70.48;100663.84;5077524;28;20065;-81
2022/05/30 05:31:02;;;;;;;;;;;;;;;22.48;70.34;100670.03;5064711;28;20036;-82
2022/05/30 05:33:29;;;;;;;17.08;9.48;;;;;;;22.43;70.58;100664.72;5068302;28;19919;-81
2022/05/30 05:35:54;;;;;;;15.18;10.02;;;;;;;22.38;70.57;100676.22;5068190;28;20052;-81
2022/05/30 05:38:20;;;;;;;15.90;9.85;;;;;;;22.36;70.71;100673.56;5082416;28;20020;-83
2022/05/30 05:40:45;;;;;;;;;;;;;;;22.50;70.61;100693.13;5064693;28;20542;-81
2022/05/30 05:43:12;;;;;;;15.57;10.05;;;;;;;22.47;70.90;100698.44;5067291;28;19913;-82
2022/05/30 05:45:40;;;;;;;14.85;9.77;;;;;;;22.30;70.82;100669.09;5068149;28;20028;-82
2022/05/30 05:48:09;;;;;;;12.57;9.38;;;;;;;22.36;70.82;100681.53;5069787;28;20024;-82
2022/05/30 05:50:39;;;;;;;15.95;10.23;;;;;;;22.46;70.86;100698.44;5068937;28;20075;-81
2022/05/30 05:53:06;;;;;;;16.95;9.73;;;;;;;22.45;70.96;100700.19;5065776;28;20052;-81
2022/05/30 05:55:32;;;;;;;16.05;10.07;;;;;;;22.45;70.92;100707.28;5067195;28;20379;-82
2022/05/30 05:57:57;;;;;;;14.60;9.80;;;;;;;22.34;70.96;100700.16;5082878;28;20538;-81
2022/05/30 06:00:23;;;;;;;14.90;10.10;;;;;;;22.44;71.06;100724.16;5068549;28;20020;-82
2022/05/30 06:02:48;;;;;;;;;;;;;;;22.49;71.16;100730.38;5089676;28;20028;-82
2022/05/30 06:05:14;;;;;;;14.10;10.32;;;;;;;22.46;71.16;100719.75;5072821;28;19909;-81
2022/05/30 06:07:41;;;;;;;14.63;10.23;;;;;;;22.45;71.43;100723.25;5070465;28;20024;-81
2022/05/30 06:10:10;;;;;;;15.18;10.55;;;;;;;22.38;71.37;100711.72;5090091;28;20032;-81
2022/05/30 06:12:37;;;;;;;14.13;10.55;;;;;;;22.43;71.47;100720.59;5089606;28;20099;-81
2022/05/30 06:15:04;;;;;;;14.68;10.43;;;;;;;22.36;71.45;100716.13;5076887;28;20043;-82
2022/05/30 06:17:32;;;;;;;16.20;10.15;;;;;;;22.29;71.96;100717.88;5064260;28;20055;-82
2022/05/30 06:19:59;;;;;;;13.02;9.80;;;;;;;22.27;71.93;100714.31;5090594;28;20085;-81
2022/05/30 06:22:25;;;;;;;12.98;9.30;;;;;;;22.31;72.00;100709.91;5074941;28;20425;-81
2022/05/30 06:24:50;;;;;;;12.88;9.80;;;;;;;22.34;72.39;100721.44;5081149;28;20111;-82
2022/05/30 06:27:18;;;;;;;12.02;9.48;;;;;;;22.35;72.30;100723.22;5086748;28;20032;-82
2022/05/30 06:29:44;;;;;;;12.85;9.88;;;;;;;22.35;72.20;100728.56;5075884;28;20024;-82
2022/05/30 06:32:11;;;;;;;11.95;9.00;;;;;;;22.43;72.16;100739.22;5076023;28;20031;-82
2022/05/30 06:34:36;;;;;;;;;;;;;;;22.45;72.22;100736.56;5061779;28;20040;-81
2022/05/30 06:37:02;;;;;;;12.93;9.43;;;;;;;22.32;72.03;100707.22;5071534;28;20309;-82
2022/05/30 06:39:27;;;;;;;;;;;;;;;22.52;72.05;100733.94;5064764;28;20025;-82
2022/05/30 06:41:53;;;;;;;11.57;9.00;;;;;;;22.40;72.29;100730.34;5068965;28;19922;-81
2022/05/30 06:44:21;;;;;;;14.52;9.68;;;;;;;22.46;72.36;100743.69;5070925;28;20066;-82
2022/05/30 06:46:47;;;;;;;14.50;9.80;;;;;;;22.36;72.24;100735.63;5065560;28;20021;-80
2022/05/30 06:49:12;;;;;;;11.57;9.65;;;;;;;22.42;72.52;100736.56;5072662;28;20030;-81
2022/05/30 06:51:38;;;;;;;;;;;;;;;22.47;72.66;100741.00;5068864;28;20032;-82
2022/05/30 06:54:05;;;;;;;13.13;9.98;;;;;;;22.45;71.99;100736.56;5077919;28;19912;-81
2022/05/30 06:56:33;;;;;;;13.82;9.73;;;;;;;22.48;72.20;100744.56;5068192;28;20020;-82
2022/05/30 06:58:59;;;;;;;13.82;10.60;;;;;;;22.45;72.36;100737.44;5069617;28;20024;-81
2022/05/30 07:01:26;;;;;;;;;;;;;;;22.54;72.01;100753.47;5074192;28;20489;-82
2022/05/30 07:03:55;;;;;;;11.50;9.52;;;;;;;22.43;71.93;100735.66;5069099;28;19965;-82
2022/05/30 07:06:31;;;;;;;11.43;9.48;;;;;;;22.53;71.61;100748.16;5072512;28;20031;-81
2022/05/30 07:08:58;;;;;;;13.02;9.43;;;;;;;22.54;72.10;100750.81;5068335;28;20036;-81
2022/05/30 07:11:24;;;;;;;12.68;10.35;;;;;;;22.53;72.39;100750.81;5066713;28;20103;-82
2022/05/30 07:13:51;;;;;;;10.93;9.38;;;;;;;22.54;72.10;100758.81;5073519;28;20127;-81
2022/05/30 07:16:18;;;;;;;15.38;9.82;;;;;;;22.59;71.89;100757.94;5071221;28;20024;-81
2022/05/30 07:18:44;;;;;;;14.10;10.15;;;;;;;22.50;72.22;100748.09;5088126;28;20468;-81
2022/05/30 07:21:09;;;;;;;;;;;;;;;22.55;72.68;100755.25;5072963;28;20103;-81
2022/05/30 07:23:37;;;;;;;16.25;10.43;;;;;;;22.56;72.94;100753.47;5059986;28;20016;-81
2022/05/30 07:26:06;;;;;;;13.38;9.90;;;;;;;22.58;72.16;100750.81;5060773;28;20017;-81
2022/05/30 07:28:32;;;;;;;13.63;9.90;;;;;;;22.56;72.35;100750.81;5071237;28;20557;-81
2022/05/30 07:31:17;;;;;;;;;;;;;;;22.54;72.49;100752.56;5073256;28;20036;-82
2022/05/30 07:33:46;;;;;;;14.32;10.25;;;;;;;22.54;72.67;100758.81;5069716;28;20308;-81
2022/05/30 07:36:35;;;;;;;12.23;9.93;;;;;;;22.58;72.53;100759.69;5086203;28;20028;-80
2022/05/30 07:39:01;;;;;;;15.00;10.70;;;;;;;22.55;72.27;100763.22;5080891;28;20020;-81
2022/05/30 07:41:29;;;;;;;17.23;10.23;;;;;;;22.48;72.39;100748.13;5082224;28;20028;-81
2022/05/30 07:43:55;;;;;;;12.77;10.07;;;;;;;22.59;72.31;100768.59;5063093;28;20510;-81
2022/05/30 07:46:21;;;;;;;13.20;10.48;;;;;;;22.60;72.29;100768.56;5083594;28;20024;-81
2022/05/30 07:48:46;;;;;;;;;;;;;;;22.65;72.35;100771.25;5070633;28;20025;-81
2022/05/30 07:51:13;;;;;;;14.50;10.10;;;;;;;22.57;72.39;100773.88;5069959;28;19911;-81
2022/05/30 07:53:41;;;;;;;13.13;9.73;;;;;;;22.60;72.13;100783.66;5066858;28;20024;-83
2022/05/30 07:56:09;;;;;;;13.63;10.05;;;;;;;22.61;72.58;100777.47;5068937;28;20402;-81
2022/05/30 07:58:36;;;;;;;13.52;10.70;;;;;;;22.64;72.44;100783.66;5071015;28;20024;-82
2022/05/30 08:01:03;;;;;;;13.18;10.18;;;;;;;22.46;72.28;100744.56;5072494;28;20406;-82
2022/05/30 08:03:29;;;;;;;14.15;10.20;;;;;;;22.65;72.52;100781.88;5068114;28;20079;-82
2022/05/30 08:06:08;;;;;;;12.18;10.30;;;;;;;22.62;72.26;100780.13;5085563;28;20493;-82
2022/05/30 08:08:33;;;;;;;14.68;10.93;;;;;;;22.61;72.45;100772.16;5064800;28;20025;-82
2022/05/30 08:10:59;;;;;;;13.10;9.95;;;;;;;22.64;72.11;100781.00;5069915;28;20040;-82
2022/05/30 08:13:25;;;;;;;16.90;10.50;;;;;;;22.64;72.40;100786.34;5060528;28;20033;-82
2022/05/30 08:15:50;;;;;;;;;;;;;;;22.70;72.21;100789.03;5067289;28;20467;-82
2022/05/30 08:18:36;;;;;;;13.20;10.27;;;;;;;22.67;72.85;100793.44;5052500;28;19920;-82
2022/05/30 08:21:02;;;;;;;15.93;10.60;;;;;;;22.65;72.49;100785.47;5064626;28;20086;-81
2022/05/30 08:23:27;;;;;;;12.80;9.95;;;;;;;22.71;72.25;100796.16;5059890;28;20124;-80
2022/05/30 08:25:57;;;;;;;18.35;10.95;;;;;;;22.53;72.31;100775.63;5071315;28;20099;-82
2022/05/30 08:28:23;;;;;;;16.60;11.23;;;;;;;22.71;72.73;100801.47;5065843;28;20032;-82
2022/05/30 08:30:49;;;;;;;14.23;10.73;;;;;;;22.72;72.46;100805.00;5074253;28;20032;-81
2022/05/30 08:33:18;;;;;;;12.68;10.70;;;;;;;22.72;72.25;100808.56;5070377;28;20040;-82
2022/05/30 08:35:47;;;;;;;13.05;10.43;;;;;;;22.70;72.24;100802.34;5073811;28;20028;-82
2022/05/30 08:38:14;;;;;;;13.18;10.57;;;;;;;22.71;72.45;100808.53;5060282;28;20033;-81
2022/05/30 08:43:37;;;;;;;14.02;11.05;;;;;;;22.73;72.54;100806.78;5064492;28;20075;-83
2022/05/30 08:46:12;;;;;;;13.23;10.75;;;;;;;22.74;72.56;100809.47;5085448;28;20021;-81
2022/05/30 08:49:12;;;;;;;15.32;10.70;;;;;;;22.71;72.56;100800.56;5071772;28;20077;-80
2022/05/30 08:51:49;;;;;;;15.10;11.05;;;;;;;22.80;72.03;100819.25;5074917;28;20036;-81
2022/05/30 08:54:46;;;;;;;13.68;10.75;;;;;;;22.75;72.77;100824.56;5071654;28;20115;-81
2022/05/30 08:57:30;;;;;;;16.50;11.47;;;;;;;22.77;72.27;100828.13;5066251;28;20444;-81
2022/05/30 08:59:59;;;;;;;14.73;11.38;;;;;;;22.76;73.38;100839.63;5065520;28;20539;-81
2022/05/30 09:02:30;;;;;;;13.00;11.02;;;;;;;22.71;72.36;100827.19;5067582;28;20074;-81
2022/05/30 09:05:17;;;;;;;12.63;11.05;;;;;;;22.77;72.43;100848.50;5067879;28;20028;-80
2022/05/30 09:07:49;;;;;;;17.13;12.07;;;;;;;22.74;72.30;100844.06;5083475;28;20405;-81
2022/05/30 09:10:26;;;;;;;15.32;12.02;;;;;;;22.77;72.66;100849.44;5070763;28;20032;-81
2022/05/30 09:13:06;;;;;;;15.18;12.00;;;;;;;22.72;72.92;100853.81;5065468;28;20560;-80
2022/05/30 09:15:46;;;;;;;15.50;11.85;;;;;;;22.79;72.58;100857.41;5071253;28;20610;-80
2022/05/30 09:18:22;;;;;;;14.80;12.43;;;;;;;22.82;72.52;100862.75;5081173;28;20020;-80
2022/05/30 09:20:49;;;;;;;16.08;12.00;;;;;;;22.79;72.51;100860.06;5064305;28;20093;-80
2022/05/30 09:23:18;;;;;;;16.25;12.23;;;;;;;22.81;72.45;100868.06;5068659;28;20032;-80
2022/05/30 09:26:07;;;;;;;14.85;11.57;;;;;;;22.81;72.45;100868.06;5067436;28;20017;-81
2022/05/30 09:28:35;;;;;;;16.23;12.00;;;;;;;22.80;72.90;100880.50;5065646;28;20024;-80
2022/05/30 09:31:16;;;;;;;15.93;11.95;;;;;;;22.80;72.82;100879.63;5066344;28;20051;-81
2022/05/30 09:33:45;;;;;;;16.55;12.35;;;;;;;22.81;72.75;100884.91;5051809;28;20021;-81
2022/05/30 09:36:18;;;;;;;15.05;12.32;;;;;;;22.86;72.68;100882.28;5049977;28;20397;-81
2022/05/30 09:39:01;;;;;;;14.45;11.93;;;;;;;22.84;72.73;100887.63;5050814;28;20101;-81
2022/05/30 09:41:39;;;;;;;15.75;13.25;;;;;;;22.74;73.46;100881.34;5051173;28;20095;-81
2022/05/30 09:44:10;;;;;;;18.98;13.38;;;;;;;22.67;73.59;100860.91;5057980;28;20025;-82
2022/05/30 09:46:42;;;;;;;18.58;13.50;;;;;;;22.71;73.32;100865.38;5070899;28;20024;-82
2022/05/30 09:49:17;;;;;;;18.40;13.07;;;;;;;22.82;73.05;100884.06;5056453;28;20489;-82
2022/05/30 09:51:48;;;;;;;18.67;13.57;;;;;;;22.82;73.07;100877.81;5065628;28;20024;-82
2022/05/30 09:54:26;;;;;;;18.50;13.23;;;;;;;22.82;72.92;100880.47;5070937;28;20078;-81
2022/05/30 09:57:35;;;;;;;19.15;13.75;;;;;;;22.85;72.70;100881.41;5066677;28;20028;-81
2022/05/30 10:00:11;;;;;;;16.77;13.15;;;;;;;22.80;72.93;100882.28;5069495;28;20020;-81
2022/05/30 10:02:38;;;;;;;16.77;13.13;;;;;;;22.90;72.46;100877.00;5066933;28;20096;-81
2022/05/30 10:05:07;;;;;;;17.85;13.15;;;;;;;22.90;72.47;100876.09;5082227;28;20063;-81
2022/05/30 10:07:35;;;;;;;19.17;13.65;;;;;;;22.83;72.42;100859.19;5066749;28;20090;-82
2022/05/30 10:10:00;;;;;;;17.08;13.45;;;;;;;22.95;72.20;100872.56;5082075;28;20077;-80
2022/05/30 10:12:30;;;;;;;;;;;;;;;22.92;72.29;100875.25;5071464;28;20040;-81
2022/05/30 10:14:56;;;;;;;17.13;12.70;;;;;;;22.89;72.41;100869.00;5055953;28;19916;-81
2022/05/30 10:17:26;;;;;;;;;;;;;;;22.87;72.36;100873.44;5060449;28;20375;-81
2022/05/30 10:19:52;;;;;;;16.73;12.82;;;;;;;22.83;72.36;100872.50;5079444;28;19916;-80
2022/05/30 10:28:39;;;;;;;18.85;13.13;;;;;;;22.92;72.28;100879.66;5064761;28;20074;-81
2022/05/30 10:31:17;;;;;;;17.35;12.98;;;;;;;22.93;72.36;100879.66;5062625;28;20111;-82
2022/05/30 10:34:20;;;;;;;16.88;12.50;;;;;;;22.94;72.25;100881.47;5056234;28;20489;-81
2022/05/30 10:37:19;;;;;;;18.27;13.40;;;;;;;22.98;72.16;100888.56;5067542;28;20029;-82
2022/05/30 10:40:08;;;;;;;18.70;13.38;;;;;;;22.97;72.26;100877.91;5064055;28;20036;-81
2022/05/30 10:42:54;;;;;;;17.60;11.80;;;;;;;23.00;72.20;100887.69;5049434;28;20025;-82
2022/05/30 10:45:40;;;;;;;17.55;12.55;;;;;;;22.96;72.25;100886.78;5080083;28;20028;-82
2022/05/30 10:48:10;;;;;;;17.98;12.70;;;;;;;23.00;72.26;100890.34;5073079;28;20054;-81
2022/05/30 10:50:43;;;;;;;15.93;12.43;;;;;;;22.97;72.24;100892.13;5058800;28;20501;-81
2022/05/30 10:53:38;;;;;;;18.23;12.85;;;;;;;23.02;72.17;100897.50;5067334;28;20032;-80
2022/05/30 10:56:24;;;;;;;15.32;12.15;;;;;;;23.01;72.13;100898.41;5061092;28;20032;-81
2022/05/30 10:58:58;;;;;;;15.48;12.50;;;;;;;23.01;72.26;100901.06;5068624;28;20033;-81
2022/05/30 11:02:01;;;;;;;14.57;12.57;;;;;;;22.97;72.27;100897.44;5085843;28;20032;-81
2022/05/30 11:04:48;;;;;;;16.55;12.20;;;;;;;23.07;72.14;100897.50;5064467;28;20023;-81
2022/05/30 11:07:26;;;;;;;;;;;;;;;23.09;71.95;100891.34;5070061;28;20584;-81
2022/05/30 11:10:20;;;;;;;17.58;12.98;;;;;;;22.98;72.32;100885.00;5068806;28;20374;-81
2022/05/30 11:12:52;;;;;;;18.42;12.98;;;;;;;23.03;72.37;100893.97;5071187;28;20107;-81
2022/05/30 11:15:29;;;;;;;14.30;12.23;;;;;;;23.02;72.15;100892.16;5060703;28;20020;-81
2022/05/30 11:18:01;;;;;;;17.65;12.25;;;;;;;22.98;72.13;100885.91;5073139;28;20059;-81
2022/05/30 11:20:34;;;;;;;16.73;12.52;;;;;;;23.10;72.07;100905.53;5061001;28;20048;-81
2022/05/30 11:23:00;;;;;;;15.20;11.88;;;;;;;23.09;72.21;100902.00;5056593;28;20025;-81
2022/05/30 11:25:44;;;;;;;;;;;;;;;23.12;71.99;100902.00;5061383;28;20031;-81
2022/05/30 11:28:39;;;;;;;16.05;12.10;;;;;;;23.13;72.08;100901.09;5059193;28;19909;-81
2022/05/30 11:31:25;;;;;;;17.55;11.88;;;;;;;23.11;71.96;100905.56;5061325;28;20028;-81
2022/05/30 11:34:17;;;;;;;16.45;12.02;;;;;;;23.14;71.92;100910.88;5060105;28;20477;-82
2022/05/30 11:37:13;;;;;;;17.15;12.90;;;;;;;23.13;72.18;100906.41;5055445;28;20060;-81
2022/05/30 11:39:51;;;;;;;14.18;11.52;;;;;;;23.14;72.11;100902.00;5052108;28;20029;-81
2022/05/30 11:42:41;;;;;;;15.05;11.60;;;;;;;23.14;72.12;100904.66;5059428;28;20024;-82
2022/05/30 11:45:18;;;;;;;13.77;11.55;;;;;;;23.15;72.11;100901.09;5055719;28;20017;-81
2022/05/30 11:47:54;;;;;;;;;;;;;;;23.18;72.01;100903.81;5053870;28;20021;-81
2022/05/30 11:50:35;;;;;;;14.63;11.90;;;;;;;23.16;72.02;100895.78;5071202;28;20336;-81
2022/05/30 11:53:25;;;;;;;15.60;12.00;;;;;;;23.16;72.01;100894.91;5067777;28;20387;-81